Terminal Aerodrome Forecast
Issued by NWS

Home | Current Version | Previous Version | Text Only | Print | Product List | Glossary On
Versions: 1 2 3 4 5 6 7 8 9 10 11 12 13 14 15 16 17 18 19 20 21
000
FTUS45 KFGZ 012330
TAFGCN
TAF
KGCN 012330Z 0200/0224 22010KT P6SM SCT070 BKN090
     FM020300 VRB03KT P6SM FEW070 FEW250
     FM022000 22010KT P6SM FEW060 FEW250=

USA.gov is the U.S. government's official web portal to all federal, state and local government web resources and services.